createdAt,value
2018-01-28T00:00:14.097Z,70.53
2018-01-28T00:00:37.350Z,70.65
2018-01-28T00:01:01.111Z,70.79
2018-01-28T00:01:24.996Z,70.99
2018-01-28T00:01:48.573Z,71.13
2018-01-28T00:02:12.127Z,71.24
2018-01-28T00:02:35.965Z,71.31
2018-01-28T00:02:59.461Z,71.38
2018-01-28T00:03:23.239Z,71.46
2018-01-28T00:03:46.982Z,71.54
2018-01-28T00:04:10.996Z,71.66
2018-01-28T00:04:35.011Z,71.90
2018-01-28T00:04:58.775Z,72.10
2018-01-28T00:05:22.315Z,72.13
2018-01-28T00:05:46.079Z,72.17
2018-01-28T00:06:09.655Z,72.35
2018-01-28T00:06:33.391Z,72.52
2018-01-28T00:06:57.160Z,72.65
2018-01-28T00:07:20.891Z,72.77
2018-01-28T00:07:44.295Z,72.91
2018-01-28T00:08:08.025Z,73.07
2018-01-28T00:08:31.751Z,73.23
2018-01-28T00:08:55.483Z,73.37
2018-01-28T00:09:19.210Z,73.47
2018-01-28T00:09:42.933Z,73.55
2018-01-28T00:10:06.679Z,73.64
2018-01-28T00:10:30.423Z,73.75
2018-01-28T00:10:53.862Z,73.92
2018-01-28T00:11:17.599Z,74.13
2018-01-28T00:11:41.400Z,74.35
2018-01-28T00:12:04.853Z,74.53
2018-01-28T00:12:28.431Z,74.67
2018-01-28T00:12:52.292Z,74.78
2018-01-28T00:13:15.561Z,74.89
2018-01-28T00:13:39.104Z,75.03
2018-01-28T00:14:02.855Z,75.13
2018-01-28T00:14:26.589Z,75.19
2018-01-28T00:14:50.317Z,75.35
2018-01-28T00:15:13.586Z,75.44
2018-01-28T00:15:37.140Z,75.54
2018-01-28T00:16:00.600Z,75.62
2018-01-28T00:16:24.147Z,75.71
2018-01-28T00:16:47.967Z,75.71
2018-01-28T00:17:11.238Z,75.69
2018-01-28T00:17:34.774Z,75.61
2018-01-28T00:17:58.309Z,75.52
2018-01-28T00:18:21.941Z,75.55
2018-01-28T00:18:45.774Z,75.64
2018-01-28T00:19:09.577Z,75.70
2018-01-28T00:19:33.339Z,75.75
2018-01-28T00:19:57.080Z,75.82
2018-01-28T00:20:20.807Z,75.85
2018-01-28T00:20:44.119Z,75.82
2018-01-28T00:21:07.844Z,75.82
2018-01-28T00:21:31.847Z,75.81
2018-01-28T00:21:55.673Z,75.87
2018-01-28T00:22:19.720Z,75.97
2018-01-28T00:22:43.749Z,76.16
2018-01-28T00:23:07.241Z,76.38
2018-01-28T00:23:30.993Z,76.51
2018-01-28T00:23:54.715Z,76.56
2018-01-28T00:24:18.461Z,76.61
2018-01-28T00:24:41.891Z,76.66
2018-01-28T00:25:05.631Z,76.71
2018-01-28T00:25:29.380Z,76.77
2018-01-28T00:25:53.320Z,76.82
2018-01-28T00:26:17.899Z,76.85
2018-01-28T00:26:41.722Z,76.95
2018-01-28T00:27:05.455Z,77.04
2018-01-28T00:27:28.935Z,77.07
2018-01-28T00:27:52.763Z,77.08
2018-01-28T00:28:16.485Z,77.10
2018-01-28T00:28:40.224Z,77.16
2018-01-28T00:29:04.345Z,77.18
2018-01-28T00:29:28.085Z,77.23
2018-01-28T00:29:51.855Z,77.25
2018-01-28T00:30:15.597Z,77.26
2018-01-28T00:30:39.344Z,77.32
2018-01-28T00:31:03.123Z,77.36
2018-01-28T00:31:27.468Z,77.38
2018-01-28T00:31:51.187Z,77.41
2018-01-28T00:32:14.979Z,77.41
2018-01-28T00:32:38.968Z,77.44
2018-01-28T00:33:02.308Z,77.51
2018-01-28T00:33:26.084Z,77.55
2018-01-28T00:33:49.868Z,77.59
2018-01-28T00:34:13.917Z,77.60
2018-01-28T00:34:37.935Z,77.62
2018-01-28T00:35:01.662Z,77.66
2018-01-28T00:35:25.391Z,77.64
2018-01-28T00:35:49.127Z,77.55
2018-01-28T00:36:12.863Z,77.52
2018-01-28T00:36:36.599Z,77.56
2018-01-28T00:36:59.683Z,77.64
2018-01-28T00:37:24.058Z,77.79
2018-01-28T00:37:47.843Z,77.88
2018-01-28T00:38:11.637Z,77.96
2018-01-28T00:38:35.379Z,78.05
2018-01-28T00:38:59.094Z,78.11
2018-01-28T00:39:22.847Z,78.21
2018-01-28T00:39:46.795Z,78.27
2018-01-28T00:40:10.262Z,78.22
2018-01-28T00:40:33.987Z,78.19
2018-01-28T00:40:57.717Z,78.20
2018-01-28T00:41:21.112Z,78.27
2018-01-28T00:41:44.863Z,78.33
2018-01-28T00:42:08.656Z,78.35
2018-01-28T00:42:32.473Z,78.40
2018-01-28T00:42:56.238Z,78.44
2018-01-28T00:43:20.248Z,78.46
2018-01-28T00:43:43.993Z,78.45
2018-01-28T00:44:07.815Z,78.49
2018-01-28T00:44:31.563Z,78.51
2018-01-28T00:44:55.302Z,78.52
2018-01-28T00:45:19.043Z,78.51
2018-01-28T00:45:43.142Z,78.47
2018-01-28T00:46:07.527Z,78.45
2018-01-28T00:46:31.269Z,78.44
2018-01-28T00:46:55.005Z,78.44
2018-01-28T00:47:18.778Z,78.43
2018-01-28T00:47:42.245Z,78.45
2018-01-28T00:48:06.041Z,78.46
2018-01-28T00:48:29.834Z,78.48
2018-01-28T00:48:53.858Z,78.50
2018-01-28T00:49:17.612Z,78.54
2018-01-28T00:49:41.107Z,78.57
2018-01-28T00:50:04.483Z,78.62
2018-01-28T00:50:28.228Z,78.66
2018-01-28T00:50:51.657Z,78.69
2018-01-28T00:51:15.725Z,78.76
2018-01-28T00:51:39.489Z,78.83
2018-01-28T00:52:03.523Z,78.88
2018-01-28T00:52:27.114Z,78.87
2018-01-28T00:52:50.853Z,78.88
2018-01-28T00:53:14.609Z,78.84
2018-01-28T00:53:38.364Z,78.83
2018-01-28T00:54:02.385Z,78.81
2018-01-28T00:54:26.419Z,78.77
2018-01-28T00:54:50.183Z,78.70
2018-01-28T00:55:13.637Z,78.73
2018-01-28T00:55:37.394Z,78.79
2018-01-28T00:56:01.136Z,78.83
2018-01-28T00:56:25.161Z,78.87
2018-01-28T00:56:48.843Z,78.88
2018-01-28T00:57:12.599Z,78.89
2018-01-28T00:57:36.322Z,78.92
2018-01-28T00:58:00.071Z,78.95
2018-01-28T00:58:24.076Z,78.99
2018-01-28T00:58:47.535Z,79.03
2018-01-28T00:59:11.323Z,79.09
2018-01-28T00:59:35.057Z,79.16
2018-01-28T00:59:58.800Z,79.23
2018-01-28T01:00:22.263Z,79.31
2018-01-28T01:00:46.011Z,79.37
2018-01-28T01:01:09.798Z,79.36
2018-01-28T01:01:33.120Z,79.33
2018-01-28T01:01:56.848Z,79.23
2018-01-28T01:02:20.587Z,79.18
2018-01-28T01:02:44.062Z,79.09
2018-01-28T01:03:07.806Z,79.12
2018-01-28T01:03:31.591Z,79.15
2018-01-28T01:03:55.616Z,79.18
2018-01-28T01:04:19.732Z,79.19
2018-01-28T01:04:43.489Z,79.20
2018-01-28T01:05:07.504Z,79.25
2018-01-28T01:05:31.585Z,79.28
2018-01-28T01:05:55.358Z,79.27
2018-01-28T01:06:18.806Z,79.29
2018-01-28T01:06:42.529Z,79.29
2018-01-28T01:07:06.263Z,79.29
2018-01-28T01:07:29.707Z,79.27
2018-01-28T01:07:53.474Z,79.26
2018-01-28T01:08:17.286Z,79.23
2018-01-28T01:08:40.991Z,79.21
2018-01-28T01:09:03.845Z,79.20
2018-01-28T01:09:27.618Z,79.22
2018-01-28T01:09:51.345Z,79.25
2018-01-28T01:10:15.076Z,79.30
2018-01-28T01:10:39.099Z,79.31
2018-01-28T01:11:03.119Z,79.26
2018-01-28T01:11:27.146Z,79.19
2018-01-28T01:11:50.939Z,79.16
2018-01-28T01:12:14.383Z,79.19
2018-01-28T01:12:38.108Z,79.24
2018-01-28T01:13:01.159Z,79.28
2018-01-28T01:13:24.920Z,79.29
2018-01-28T01:13:48.971Z,79.34
2018-01-28T01:14:12.733Z,79.35
2018-01-28T01:14:36.191Z,79.37
2018-01-28T01:14:59.912Z,79.42
2018-01-28T01:15:23.689Z,79.45
2018-01-28T01:15:47.697Z,79.44
2018-01-28T01:16:11.719Z,79.38
2018-01-28T01:16:35.156Z,79.31
2018-01-28T01:16:58.907Z,79.27
2018-01-28T01:17:22.666Z,79.21
2018-01-28T01:17:46.440Z,79.20
2018-01-28T01:18:09.896Z,79.22
2018-01-28T01:18:33.631Z,79.27
2018-01-28T01:18:57.461Z,79.32
2018-01-28T01:19:21.480Z,79.36
2018-01-28T01:19:44.915Z,79.41
2018-01-28T01:20:08.655Z,79.42
2018-01-28T01:20:32.391Z,79.39
2018-01-28T01:20:55.831Z,79.32
2018-01-28T01:21:19.557Z,79.26
2018-01-28T01:21:42.923Z,79.21
2018-01-28T01:22:06.647Z,79.20
2018-01-28T01:22:30.375Z,79.20
2018-01-28T01:22:54.119Z,79.19
2018-01-28T01:23:18.156Z,79.26
2018-01-28T01:23:42.169Z,79.33
2018-01-28T01:24:05.935Z,79.37
2018-01-28T01:24:29.672Z,79.41
2018-01-28T01:24:53.430Z,79.44
2018-01-28T01:25:17.190Z,79.45
2018-01-28T01:25:40.944Z,79.47
2018-01-28T01:26:04.632Z,79.46
2018-01-28T01:26:28.356Z,79.40
2018-01-28T01:26:52.108Z,79.38
2018-01-28T01:27:15.915Z,79.38
2018-01-28T01:27:39.358Z,79.34
2018-01-28T01:28:03.083Z,79.25
2018-01-28T01:28:26.839Z,79.19
2018-01-28T01:28:50.644Z,79.16
2018-01-28T01:29:13.449Z,79.15
2018-01-28T01:29:37.213Z,79.17
2018-01-28T01:30:00.945Z,79.17
2018-01-28T01:30:24.681Z,79.18
2018-01-28T01:30:48.125Z,79.15
2018-01-28T01:31:11.916Z,79.11
2018-01-28T01:31:35.678Z,79.10
2018-01-28T01:31:59.423Z,79.13
2018-01-28T01:32:23.456Z,79.19
2018-01-28T01:32:47.461Z,79.21
2018-01-28T01:33:11.477Z,79.20
2018-01-28T01:33:35.215Z,79.16
2018-01-28T01:33:58.940Z,79.16
2018-01-28T01:34:22.697Z,79.17
2018-01-28T01:34:46.446Z,79.19
2018-01-28T01:35:10.210Z,79.18
2018-01-28T01:35:34.236Z,79.17
2018-01-28T01:35:58.260Z,79.16
2018-01-28T01:36:21.710Z,79.15
2018-01-28T01:36:45.431Z,79.10
2018-01-28T01:37:09.158Z,79.08
2018-01-28T01:37:33.246Z,79.05
2018-01-28T01:37:56.979Z,79.04
2018-01-28T01:38:20.424Z,79.04
2018-01-28T01:38:44.159Z,79.08
2018-01-28T01:39:07.931Z,79.10
2018-01-28T01:39:31.999Z,79.11
2018-01-28T01:39:56.005Z,79.10
2018-01-28T01:40:19.861Z,79.09
2018-01-28T01:40:43.882Z,79.09
2018-01-28T01:41:07.899Z,79.08
2018-01-28T01:41:31.338Z,79.06
2018-01-28T01:41:55.064Z,79.03
2018-01-28T01:42:18.794Z,79.00
2018-01-28T01:42:42.240Z,78.97
2018-01-28T01:43:06.035Z,78.91
2018-01-28T01:43:29.796Z,78.86
2018-01-28T01:43:53.546Z,78.83
2018-01-28T01:44:17.035Z,78.81
2018-01-28T01:44:40.817Z,78.80
2018-01-28T01:45:03.843Z,78.80
2018-01-28T01:45:27.617Z,78.79
2018-01-28T01:45:51.367Z,78.78
2018-01-28T01:46:15.390Z,78.77
2018-01-28T01:46:39.413Z,78.77
2018-01-28T01:47:03.417Z,78.74
2018-01-28T01:47:26.461Z,78.70
2018-01-28T01:47:50.196Z,78.65
2018-01-28T01:48:13.645Z,78.62
2018-01-28T01:48:37.376Z,78.60
2018-01-28T01:49:02.033Z,78.57
2018-01-28T01:49:32.737Z,78.56
2018-01-28T01:49:56.503Z,78.54
2018-01-28T01:50:20.243Z,78.52
2018-01-28T01:50:43.973Z,78.52
2018-01-28T01:51:07.422Z,78.50
2018-01-28T01:51:31.159Z,78.43
2018-01-28T01:51:54.893Z,78.37
2018-01-28T01:52:18.328Z,78.36
2018-01-28T01:52:42.076Z,78.35
2018-01-28T01:53:05.827Z,78.37
2018-01-28T01:53:29.508Z,78.34
2018-01-28T01:53:53.270Z,78.32
2018-01-28T01:54:16.667Z,78.30
2018-01-28T01:54:40.204Z,78.26
2018-01-28T01:55:04.168Z,78.23
2018-01-28T01:55:27.926Z,78.26
2018-01-28T01:55:51.652Z,78.27
2018-01-28T01:56:15.687Z,78.27
2018-01-28T01:56:39.429Z,78.29
2018-01-28T01:57:03.167Z,78.27
2018-01-28T01:57:26.064Z,78.24
2018-01-28T01:57:49.795Z,78.18
2018-01-28T01:58:13.536Z,78.17
2018-01-28T01:58:37.263Z,78.12
2018-01-28T01:59:00.989Z,78.11
2018-01-28T01:59:24.755Z,78.09
2018-01-28T01:59:48.503Z,78.12
2018-01-28T02:00:12.268Z,78.11
2018-01-28T02:00:36.297Z,78.11
2018-01-28T02:01:00.553Z,78.15
2018-01-28T02:01:24.312Z,78.15
2018-01-28T02:01:48.056Z,78.17
2018-01-28T02:02:11.516Z,78.20
2018-01-28T02:02:35.263Z,78.21
2018-01-28T02:02:59.013Z,78.22
2018-01-28T02:03:23.064Z,78.21
2018-01-28T02:03:47.117Z,78.17
2018-01-28T02:04:10.860Z,78.15
2018-01-28T02:04:34.306Z,78.14
2018-01-28T02:04:58.049Z,78.14
2018-01-28T02:05:21.883Z,78.12
2018-01-28T02:05:45.907Z,78.06
2018-01-28T02:06:09.850Z,78.05
2018-01-28T02:06:33.875Z,78.07
2018-01-28T02:06:57.264Z,78.06
2018-01-28T02:07:21.058Z,78.07
2018-01-28T02:07:44.849Z,78.08
2018-01-28T02:08:08.601Z,78.07
2018-01-28T02:08:32.692Z,78.07
2018-01-28T02:08:56.132Z,78.08
2018-01-28T02:09:19.864Z,78.08
2018-01-28T02:09:43.639Z,78.09
2018-01-28T02:10:07.389Z,78.09
2018-01-28T02:10:30.268Z,78.08
2018-01-28T02:10:54.012Z,78.06
2018-01-28T02:11:17.789Z,78.07
2018-01-28T02:11:41.524Z,78.08
2018-01-28T02:12:05.261Z,78.06
2018-01-28T02:12:29.359Z,78.05
2018-01-28T02:12:53.400Z,78.06
2018-01-28T02:13:17.141Z,78.09
2018-01-28T02:13:40.592Z,78.11
2018-01-28T02:14:04.329Z,78.13
2018-01-28T02:14:27.768Z,78.13
2018-01-28T02:14:51.496Z,78.15
2018-01-28T02:15:15.265Z,78.18
2018-01-28T02:15:39.049Z,78.20
2018-01-28T02:16:03.078Z,78.20
2018-01-28T02:16:27.113Z,78.21
2018-01-28T02:16:50.856Z,78.19
2018-01-28T02:17:14.312Z,78.19
2018-01-28T02:17:38.084Z,78.20
2018-01-28T02:18:01.832Z,78.22
2018-01-28T02:18:25.885Z,78.21
2018-01-28T02:18:49.889Z,78.21
2018-01-28T02:19:13.663Z,78.26
2018-01-28T02:19:36.812Z,78.28
2018-01-28T02:20:00.251Z,78.27
2018-01-28T02:20:23.673Z,78.27
2018-01-28T02:20:47.040Z,78.25
2018-01-28T02:21:10.772Z,78.23
2018-01-28T02:21:34.552Z,78.27
2018-01-28T02:21:57.876Z,78.23
2018-01-28T02:22:21.246Z,78.22
2018-01-28T02:22:45.020Z,78.21
2018-01-28T02:23:08.407Z,78.18
2018-01-28T02:23:32.463Z,78.20
2018-01-28T02:23:56.475Z,78.20
2018-01-28T02:24:19.931Z,78.19
2018-01-28T02:24:43.666Z,78.21
2018-01-28T02:25:07.414Z,78.20
2018-01-28T02:25:31.140Z,78.21
2018-01-28T02:25:54.921Z,78.20
2018-01-28T02:26:18.653Z,78.20
2018-01-28T02:26:42.449Z,78.19
2018-01-28T02:27:06.181Z,78.18
2018-01-28T02:27:30.216Z,78.18
2018-01-28T02:27:53.963Z,78.18
2018-01-28T02:28:17.465Z,78.21
2018-01-28T02:28:40.847Z,78.21
2018-01-28T02:29:04.580Z,78.24
2018-01-28T02:29:28.324Z,78.24
2018-01-28T02:29:52.091Z,78.23
2018-01-28T02:30:15.160Z,78.25
2018-01-28T02:30:38.903Z,78.32
2018-01-28T02:31:02.942Z,78.32
2018-01-28T02:31:26.404Z,78.32
2018-01-28T02:31:50.265Z,78.34
2018-01-28T02:32:13.666Z,78.36
2018-01-28T02:32:37.396Z,78.38
2018-01-28T02:33:01.137Z,78.38
2018-01-28T02:33:24.876Z,78.38
2018-01-28T02:33:48.632Z,78.37
2018-01-28T02:34:12.755Z,78.34
2018-01-28T02:34:36.631Z,78.31
2018-01-28T02:35:00.679Z,78.33
2018-01-28T02:35:24.432Z,78.37
2018-01-28T02:35:47.885Z,78.36
2018-01-28T02:36:11.643Z,78.37
2018-01-28T02:36:35.379Z,78.38
2018-01-28T02:36:58.820Z,78.40
2018-01-28T02:37:22.578Z,78.46
2018-01-28T02:37:46.355Z,78.47
2018-01-28T02:38:10.357Z,78.47
2018-01-28T02:38:34.467Z,78.48
2018-01-28T02:38:58.200Z,78.50
2018-01-28T02:39:21.643Z,78.51
2018-01-28T02:39:45.395Z,78.53
2018-01-28T02:40:09.159Z,78.55
2018-01-28T02:40:33.220Z,78.57
2018-01-28T02:40:57.245Z,78.59
2018-01-28T02:41:21.020Z,78.56
2018-01-28T02:41:44.452Z,78.59
2018-01-28T02:42:08.211Z,78.61
2018-01-28T02:42:32.000Z,78.58
2018-01-28T02:42:56.023Z,78.53
2018-01-28T02:43:20.037Z,78.50
2018-01-28T02:43:43.493Z,78.45
2018-01-28T02:44:07.236Z,78.42
2018-01-28T02:44:30.959Z,78.41
2018-01-28T02:44:54.689Z,78.36
2018-01-28T02:45:18.435Z,78.33
2018-01-28T02:45:42.186Z,78.28
2018-01-28T02:46:05.975Z,78.26
2018-01-28T02:46:29.732Z,78.23
2018-01-28T02:46:53.758Z,78.19
2018-01-28T02:47:17.191Z,78.15
2018-01-28T02:47:40.909Z,78.14
2018-01-28T02:48:04.634Z,78.14
2018-01-28T02:48:28.643Z,78.13
2018-01-28T02:48:52.098Z,78.14
2018-01-28T02:49:15.828Z,78.16
2018-01-28T02:49:39.571Z,78.20
2018-01-28T02:50:03.328Z,78.24
2018-01-28T02:50:27.064Z,78.24
2018-01-28T02:50:50.835Z,78.28
2018-01-28T02:51:14.585Z,78.26
2018-01-28T02:51:37.656Z,78.22
2018-01-28T02:52:01.379Z,78.17
2018-01-28T02:52:25.400Z,78.17
2018-01-28T02:52:49.162Z,78.16
2018-01-28T02:53:12.615Z,78.11
2018-01-28T02:53:36.389Z,78.09
2018-01-28T02:54:00.329Z,78.08
2018-01-28T02:54:23.414Z,78.11
2018-01-28T02:54:47.151Z,78.10
2018-01-28T02:55:11.001Z,78.07
2018-01-28T02:55:34.441Z,78.04
2018-01-28T02:55:58.162Z,78.02
2018-01-28T02:56:21.904Z,78.00
2018-01-28T02:56:45.467Z,77.98
2018-01-28T02:57:09.199Z,77.93
2018-01-28T02:57:32.921Z,77.89
2018-01-28T02:57:56.943Z,77.86
2018-01-28T02:58:20.980Z,77.86
2018-01-28T02:58:44.720Z,77.85
2018-01-28T02:59:08.151Z,77.88
2018-01-28T02:59:31.895Z,77.92
2018-01-28T02:59:55.656Z,77.91
2018-01-28T03:00:19.098Z,77.93
2018-01-28T03:00:42.821Z,77.94
2018-01-28T03:01:06.634Z,77.95
2018-01-28T03:01:30.686Z,77.96
2018-01-28T03:01:54.706Z,77.99
2018-01-28T03:02:18.477Z,77.99
2018-01-28T03:02:41.576Z,78.02
2018-01-28T03:03:05.110Z,78.08
2018-01-28T03:03:28.865Z,78.13
2018-01-28T03:03:52.618Z,78.16
2018-01-28T03:04:16.374Z,78.19
2018-01-28T03:04:40.190Z,78.23
2018-01-28T03:05:03.568Z,78.25
2018-01-28T03:05:27.291Z,78.24
2018-01-28T03:05:50.775Z,78.26
2018-01-28T03:06:14.549Z,78.27
2018-01-28T03:06:38.339Z,78.29
2018-01-28T03:07:02.383Z,78.32
2018-01-28T03:07:26.188Z,78.35
2018-01-28T03:07:50.212Z,78.39
2018-01-28T03:08:14.248Z,78.47
2018-01-28T03:08:37.747Z,78.50
2018-01-28T03:09:01.474Z,78.53
2018-01-28T03:09:24.919Z,78.59
2018-01-28T03:09:48.655Z,78.67
2018-01-28T03:10:12.383Z,78.70
2018-01-28T03:10:36.132Z,78.72
2018-01-28T03:10:59.878Z,78.73
2018-01-28T03:11:23.334Z,78.75
2018-01-28T03:11:47.135Z,78.73
2018-01-28T03:12:10.901Z,78.75
2018-01-28T03:12:34.917Z,78.78
2018-01-28T03:12:58.631Z,78.81
2018-01-28T03:13:23.056Z,78.84
2018-01-28T03:13:46.788Z,78.88
2018-01-28T03:14:10.816Z,78.90
2018-01-28T03:14:34.841Z,78.92
2018-01-28T03:14:58.627Z,78.96
2018-01-28T03:15:22.080Z,79.02
2018-01-28T03:15:45.803Z,79.05
2018-01-28T03:16:08.832Z,79.04
2018-01-28T03:16:32.305Z,79.05
2018-01-28T03:16:56.039Z,79.03
2018-01-28T03:17:19.869Z,79.01
2018-01-28T03:17:43.705Z,79.01
2018-01-28T03:18:07.455Z,79.02
2018-01-28T03:18:31.471Z,79.07
2018-01-28T03:18:55.478Z,79.09
2018-01-28T03:19:19.549Z,79.09
2018-01-28T03:19:43.302Z,79.07
2018-01-28T03:20:06.783Z,79.08
2018-01-28T03:20:30.536Z,79.09
2018-01-28T03:20:54.281Z,79.10
2018-01-28T03:21:18.291Z,79.09
2018-01-28T03:21:41.615Z,79.06
2018-01-28T03:22:04.977Z,79.02
2018-01-28T03:22:28.731Z,78.98
2018-01-28T03:22:52.560Z,78.94
2018-01-28T03:23:16.292Z,78.91
2018-01-28T03:23:39.726Z,78.90
2018-01-28T03:24:03.450Z,78.89
2018-01-28T03:24:27.257Z,78.90
2018-01-28T03:24:51.037Z,78.92
2018-01-28T03:25:14.476Z,78.91
2018-01-28T03:25:38.223Z,78.90
2018-01-28T03:26:01.960Z,78.92
2018-01-28T03:26:25.446Z,78.96
2018-01-28T03:26:49.179Z,78.94
2018-01-28T03:27:12.936Z,78.92
2018-01-28T03:27:36.980Z,78.88
2018-01-28T03:28:01.062Z,78.87
2018-01-28T03:28:24.814Z,78.86
2018-01-28T03:28:48.253Z,78.90
2018-01-28T03:29:12.000Z,78.91
2018-01-28T03:29:35.719Z,78.95
2018-01-28T03:29:59.477Z,78.98
2018-01-28T03:30:23.234Z,78.97
2018-01-28T03:30:46.854Z,78.98
2018-01-28T03:31:10.673Z,78.96
2018-01-28T03:31:34.258Z,78.98
2018-01-28T03:31:58.020Z,78.96
2018-01-28T03:32:21.611Z,78.96
2018-01-28T03:32:44.875Z,78.94
2018-01-28T03:33:08.470Z,78.92
2018-01-28T03:33:32.001Z,78.88
2018-01-28T03:33:55.669Z,78.85
2018-01-28T03:34:19.554Z,78.82
2018-01-28T03:34:43.392Z,78.78
2018-01-28T03:35:06.959Z,78.75
2018-01-28T03:35:30.714Z,78.76
2018-01-28T03:35:54.472Z,78.74
2018-01-28T03:36:18.287Z,78.75
2018-01-28T03:36:41.825Z,78.75
2018-01-28T03:37:05.443Z,78.73
2018-01-28T03:37:29.592Z,78.73
2018-01-28T03:37:53.361Z,78.72
2018-01-28T03:38:17.407Z,78.71
2018-01-28T03:38:40.846Z,78.69
2018-01-28T03:39:03.688Z,78.70
2018-01-28T03:39:27.416Z,78.67
2018-01-28T03:39:51.156Z,78.64
2018-01-28T03:40:14.603Z,78.63
2018-01-28T03:40:38.497Z,78.63
2018-01-28T03:41:02.228Z,78.62
2018-01-28T03:41:25.667Z,78.61
2018-01-28T03:41:49.394Z,78.61
2018-01-28T03:42:13.115Z,78.59
2018-01-28T03:42:37.119Z,78.61
2018-01-28T03:43:01.183Z,78.62
2018-01-28T03:43:24.939Z,78.61
2018-01-28T03:43:48.961Z,78.61
2018-01-28T03:44:12.969Z,78.59
2018-01-28T03:44:36.972Z,78.59
2018-01-28T03:45:00.983Z,78.59
2018-01-28T03:45:24.744Z,78.60
2018-01-28T03:45:48.505Z,78.60
2018-01-28T03:46:12.219Z,78.62
2018-01-28T03:46:36.428Z,78.65
2018-01-28T03:47:00.191Z,78.66
2018-01-28T03:47:23.925Z,78.66
2018-01-28T03:47:47.668Z,78.65
2018-01-28T03:48:11.168Z,78.66
2018-01-28T03:48:34.960Z,78.67
2018-01-28T03:48:58.705Z,78.67
2018-01-28T03:49:22.167Z,78.67
2018-01-28T03:49:45.891Z,78.68
2018-01-28T03:50:09.621Z,78.68
2018-01-28T03:50:33.623Z,78.69
2018-01-28T03:50:57.431Z,78.72
2018-01-28T03:51:20.872Z,78.76
2018-01-28T03:51:44.584Z,78.77
2018-01-28T03:52:08.322Z,78.77
2018-01-28T03:52:32.032Z,78.77
2018-01-28T03:52:55.816Z,78.76
2018-01-28T03:53:18.889Z,78.75
2018-01-28T03:53:42.621Z,78.75
2018-01-28T03:54:06.405Z,78.76
2018-01-28T03:54:30.165Z,78.76
2018-01-28T03:54:53.888Z,78.75
2018-01-28T03:55:17.610Z,78.73
2018-01-28T03:55:41.347Z,78.70
2018-01-28T03:56:04.766Z,78.71
2018-01-28T03:56:28.508Z,78.73
2018-01-28T03:56:52.399Z,78.73
2018-01-28T03:57:16.144Z,78.73
2018-01-28T03:57:40.223Z,78.75
2018-01-28T03:58:03.972Z,78.75
2018-01-28T03:58:27.535Z,78.73
2018-01-28T03:58:51.261Z,78.72
2018-01-28T03:59:14.987Z,78.70
2018-01-28T03:59:39.041Z,78.70
2018-01-28T04:00:03.047Z,78.71
2018-01-28T04:00:26.488Z,78.71
2018-01-28T04:00:50.220Z,78.69
2018-01-28T04:01:13.943Z,78.69
2018-01-28T04:01:37.963Z,78.67
2018-01-28T04:02:01.398Z,78.64
2018-01-28T04:02:25.186Z,78.63
2018-01-28T04:02:48.966Z,78.61
2018-01-28T04:03:12.723Z,78.61
2018-01-28T04:03:36.772Z,78.61
2018-01-28T04:04:00.792Z,78.60
2018-01-28T04:04:24.569Z,78.61
2018-01-28T04:04:48.079Z,78.61
2018-01-28T04:05:11.816Z,78.60
2018-01-28T04:05:35.560Z,78.60
2018-01-28T04:05:59.580Z,78.59
2018-01-28T04:06:23.584Z,78.61
2018-01-28T04:06:47.596Z,78.60
2018-01-28T04:07:11.338Z,78.58
2018-01-28T04:07:34.384Z,78.59
2018-01-28T04:07:58.427Z,78.59
2018-01-28T04:08:22.506Z,78.60
2018-01-28T04:08:46.368Z,78.62
2018-01-28T04:09:10.389Z,78.65
2018-01-28T04:09:34.394Z,78.67
2018-01-28T04:09:58.140Z,78.71
2018-01-28T04:10:21.879Z,78.72
2018-01-28T04:10:45.601Z,78.72
2018-01-28T04:11:09.358Z,78.72
2018-01-28T04:11:33.118Z,78.70
2018-01-28T04:11:57.141Z,78.70
2018-01-28T04:12:21.160Z,78.68
2018-01-28T04:12:45.195Z,78.67
2018-01-28T04:13:08.927Z,78.65
2018-01-28T04:13:32.423Z,78.63
2018-01-28T04:13:56.333Z,78.65
2018-01-28T04:14:20.096Z,78.67
2018-01-28T04:14:43.847Z,78.69
2018-01-28T04:15:07.296Z,78.67
2018-01-28T04:15:31.031Z,78.67
2018-01-28T04:15:54.766Z,78.67
2018-01-28T04:16:17.524Z,78.68
2018-01-28T04:16:41.250Z,78.68
2018-01-28T04:17:04.995Z,78.68
2018-01-28T04:17:28.751Z,78.71
2018-01-28T04:17:52.777Z,78.72
2018-01-28T04:18:16.840Z,78.72
2018-01-28T04:18:40.646Z,78.73
2018-01-28T04:19:04.149Z,78.73
2018-01-28T04:19:27.922Z,78.73
2018-01-28T04:19:51.661Z,78.74
2018-01-28T04:20:15.677Z,78.73
2018-01-28T04:20:39.139Z,78.73
2018-01-28T04:21:02.863Z,78.72
2018-01-28T04:21:26.594Z,78.71
2018-01-28T04:21:50.033Z,78.70
2018-01-28T04:22:13.794Z,78.69
2018-01-28T04:22:37.526Z,78.70
2018-01-28T04:23:00.965Z,78.71
2018-01-28T04:23:24.746Z,78.71
2018-01-28T04:23:48.542Z,78.73
2018-01-28T04:24:12.304Z,78.75
2018-01-28T04:24:35.738Z,78.75
2018-01-28T04:24:59.473Z,78.75
2018-01-28T04:25:23.205Z,78.76
2018-01-28T04:25:46.640Z,78.76
2018-01-28T04:26:10.383Z,78.75
2018-01-28T04:26:34.164Z,78.75
2018-01-28T04:26:58.168Z,78.75
2018-01-28T04:27:22.008Z,78.75
2018-01-28T04:27:45.719Z,78.74
2018-01-28T04:28:09.464Z,78.75
2018-01-28T04:28:33.187Z,78.76
2018-01-28T04:28:56.956Z,78.79
2018-01-28T04:29:20.428Z,78.83
2018-01-28T04:29:44.145Z,78.84
2018-01-28T04:30:07.883Z,78.85
2018-01-28T04:30:31.355Z,78.89
2018-01-28T04:30:55.080Z,78.91
2018-01-28T04:31:18.811Z,78.92
2018-01-28T04:31:42.246Z,78.91
2018-01-28T04:32:05.982Z,78.91
2018-01-28T04:32:29.732Z,78.92
2018-01-28T04:32:53.165Z,78.94
2018-01-28T04:33:16.891Z,78.96
2018-01-28T04:33:40.646Z,78.94
2018-01-28T04:34:04.356Z,78.92
2018-01-28T05:54:21.428Z,82.41
2018-01-28T05:54:45.179Z,82.41
2018-01-28T05:55:08.923Z,82.42
2018-01-28T05:55:32.930Z,82.46
2018-01-28T05:55:56.958Z,82.48
2018-01-28T05:56:20.678Z,82.53
2018-01-28T05:56:44.244Z,82.56
2018-01-28T05:57:07.778Z,82.58
2018-01-28T05:57:31.807Z,82.59
2018-01-28T05:57:55.839Z,82.61
2018-01-28T05:58:19.597Z,82.61
2018-01-28T05:58:43.314Z,82.58
2018-01-28T05:59:07.033Z,82.56
2018-01-28T05:59:30.894Z,82.53
2018-01-28T05:59:54.789Z,82.49
2018-01-28T06:00:18.560Z,82.46
2018-01-28T06:00:42.211Z,82.44
2018-01-28T06:01:05.975Z,82.42
2018-01-28T06:01:29.704Z,82.40
2018-01-28T06:01:53.272Z,82.37
2018-01-28T06:02:16.801Z,82.33
2018-01-28T06:02:40.434Z,82.29
2018-01-28T06:03:04.443Z,82.25
2018-01-28T06:03:28.473Z,82.22
2018-01-28T06:03:52.416Z,82.21
2018-01-28T06:04:16.429Z,82.20
2018-01-28T06:04:40.466Z,82.18
2018-01-28T06:05:04.256Z,82.18
2018-01-28T06:05:27.775Z,82.14
2018-01-28T06:05:51.512Z,82.12
2018-01-28T06:06:15.264Z,82.08
2018-01-28T06:06:39.333Z,82.05
2018-01-28T06:07:03.106Z,82.03
2018-01-28T06:07:26.539Z,82.00
2018-01-28T06:07:50.286Z,81.99
2018-01-28T06:08:14.023Z,81.98
2018-01-28T06:08:37.772Z,81.97
2018-01-28T06:09:01.564Z,81.95
2018-01-28T06:09:25.340Z,81.90
2018-01-28T06:09:49.107Z,81.88
2018-01-28T06:10:13.155Z,81.84
2018-01-28T06:10:37.012Z,81.82
2018-01-28T06:11:01.031Z,81.81
2018-01-28T06:11:25.064Z,81.80
2018-01-28T06:11:48.503Z,81.78
2018-01-28T06:12:12.219Z,81.75
2018-01-28T06:12:35.948Z,81.72
2018-01-28T06:12:59.449Z,81.70
2018-01-28T06:13:23.623Z,81.70
2018-01-28T06:13:47.059Z,81.71
2018-01-28T06:14:10.817Z,81.71
2018-01-28T06:14:34.880Z,81.69
2018-01-28T06:14:58.430Z,81.66
2018-01-28T06:15:22.166Z,81.65
2018-01-28T06:15:45.888Z,81.64
2018-01-28T06:16:09.626Z,81.63
2018-01-28T06:16:33.111Z,81.61
2018-01-28T06:16:56.852Z,81.59
2018-01-28T06:17:20.579Z,81.59
2018-01-28T06:17:44.020Z,81.56
2018-01-28T06:18:07.735Z,81.51
2018-01-28T06:18:31.325Z,81.46
2018-01-28T06:18:55.107Z,81.45
2018-01-28T06:19:18.833Z,81.47
2018-01-28T06:19:42.571Z,81.51
2018-01-28T06:20:06.653Z,81.54
2018-01-28T06:20:30.461Z,81.57
2018-01-28T06:20:54.473Z,81.58
2018-01-28T06:21:18.511Z,81.61
2018-01-28T06:21:41.987Z,81.65
2018-01-28T06:22:05.379Z,81.66
2018-01-28T06:22:29.502Z,81.67
2018-01-28T06:22:53.248Z,81.66
2018-01-28T06:23:16.983Z,81.66
2018-01-28T06:23:40.760Z,81.66
2018-01-28T06:24:04.292Z,81.69
2018-01-28T06:24:28.333Z,81.69
2018-01-28T06:24:52.350Z,81.67
2018-01-28T06:25:15.816Z,81.67
2018-01-28T06:25:39.534Z,81.69